createdAt,value
2023-07-24T11:32:12.000Z,44.4
2023-07-24T11:33:26.000Z,42.5
2023-07-24T11:34:41.000Z,42.2
2023-07-24T11:35:54.000Z,42.3
2023-07-24T11:37:08.000Z,42.4
2023-07-24T11:38:22.000Z,41.9
2023-07-24T11:39:37.000Z,42.7
2023-07-24T11:40:51.000Z,42.5
2023-07-24T11:42:05.000Z,43
2023-07-24T11:43:20.000Z,42.3
2023-07-24T11:44:34.000Z,42
2023-07-24T11:45:48.000Z,42.1
2023-07-24T11:47:03.000Z,42.6
2023-07-24T11:48:17.000Z,41.9
2023-07-24T11:49:31.000Z,42
2023-07-24T11:50:45.000Z,41.4
2023-07-24T11:52:00.000Z,41.8
2023-07-24T11:53:14.000Z,42
2023-07-24T11:54:28.000Z,42.1
2023-07-24T11:55:43.000Z,42.6
2023-07-24T11:56:57.000Z,42.9
2023-07-24T11:58:11.000Z,42.9
2023-07-24T12:00:40.000Z,42.3
2023-07-24T12:01:54.000Z,42.3
2023-07-24T12:03:08.000Z,43
2023-07-24T12:05:37.000Z,43.1
2023-07-24T12:06:51.893Z,43.3
2023-07-24T12:08:06.180Z,43.8
2023-07-24T12:09:20.000Z,43.2
2023-07-24T12:10:34.000Z,43
2023-07-24T12:11:49.000Z,43.3
2023-07-24T12:13:03.000Z,42.8
2023-07-24T12:14:17.000Z,43
2023-07-24T12:15:31.000Z,42.6
2023-07-24T12:16:46.000Z,42.8
2023-07-24T12:18:00.000Z,43.2
2023-07-24T12:19:14.000Z,42.9
2023-07-24T12:20:29.000Z,42.8
2023-07-24T12:22:57.000Z,42.8
2023-07-24T12:25:26.000Z,43.5
2023-07-24T12:26:40.000Z,42.9
2023-07-24T12:27:55.000Z,42.8
2023-07-24T12:29:08.000Z,42.6
2023-07-24T12:31:36.000Z,43.1
2023-07-24T12:32:51.273Z,42.6
2023-07-24T12:34:04.000Z,43.1
2023-07-24T12:35:18.000Z,42.2
2023-07-24T12:36:33.000Z,41.9
2023-07-24T12:37:47.000Z,42.1
2023-07-24T12:39:01.000Z,42.3
2023-07-24T12:40:16.000Z,42.6
2023-07-24T12:41:30.000Z,42.2
2023-07-24T12:42:44.000Z,42.3
2023-07-24T12:43:59.000Z,42.6
2023-07-24T12:45:13.000Z,42.9
2023-07-24T12:46:27.000Z,43
2023-07-24T12:47:41.000Z,42.9
2023-07-24T12:48:56.000Z,43.2
2023-07-24T12:50:09.000Z,42.9
2023-07-24T12:51:23.000Z,43.1
2023-07-24T12:52:38.000Z,43.4
2023-07-24T12:53:52.000Z,43.6
2023-07-24T12:55:06.774Z,43.7
2023-07-24T12:56:21.000Z,43.8
2023-07-24T12:57:35.370Z,43.8
2023-07-24T12:58:49.000Z,44.7
2023-07-24T13:00:03.983Z,45.5
2023-07-24T13:01:18.286Z,46
2023-07-24T13:02:32.576Z,46.5
2023-07-24T13:03:45.957Z,46.6
2023-07-24T13:05:00.000Z,47.1
2023-07-24T13:06:14.000Z,47.3
2023-07-24T13:07:27.000Z,47.4
2023-07-24T13:08:42.000Z,47.7
2023-07-24T13:09:56.000Z,47.8
2023-07-24T13:11:10.000Z,47.8
2023-07-24T13:12:25.000Z,47.9
2023-07-24T13:13:39.000Z,48.2
2023-07-24T13:14:53.000Z,48
2023-07-24T13:16:08.000Z,48
2023-07-24T13:17:22.000Z,47.5
2023-07-24T13:18:36.000Z,47.3
2023-07-24T13:19:50.911Z,47.6
2023-07-24T13:21:05.000Z,48
2023-07-24T13:22:19.000Z,48.2
2023-07-24T13:23:32.859Z,48.2
2023-07-24T13:24:47.000Z,48.5
2023-07-24T13:26:01.000Z,48.1
2023-07-24T13:27:15.000Z,47.5
2023-07-24T13:28:30.000Z,48
2023-07-24T13:29:44.000Z,48.1
2023-07-24T13:30:58.000Z,47.9
2023-07-24T13:32:12.000Z,47.9
2023-07-24T13:33:27.000Z,48.1
2023-07-24T13:35:55.000Z,48.7
2023-07-24T13:37:10.000Z,49.1
2023-07-24T13:38:24.000Z,49
2023-07-24T13:39:38.000Z,48.8
2023-07-24T13:40:53.000Z,48.9
2023-07-24T13:42:06.000Z,49.1
2023-07-24T13:43:20.000Z,48.6
2023-07-24T13:44:35.000Z,49.1
2023-07-24T13:45:49.000Z,49
2023-07-24T13:47:03.000Z,48.9
2023-07-24T13:48:17.925Z,48.9
2023-07-24T13:49:32.000Z,48.7
2023-07-24T13:50:46.000Z,48.9
2023-07-24T13:52:00.000Z,49.3
2023-07-24T13:53:15.125Z,49.1
2023-07-24T13:54:29.000Z,49.2
2023-07-24T13:55:43.717Z,49.3
2023-07-24T13:56:58.000Z,49.4
2023-07-24T13:58:11.000Z,49.5
2023-07-24T13:59:25.678Z,49.2
2023-07-24T14:00:39.000Z,49.2
2023-07-24T14:01:54.000Z,49.3
2023-07-24T14:03:08.000Z,49.2
2023-07-24T14:04:22.000Z,49.7
2023-07-24T14:05:37.000Z,49.8
2023-07-24T14:06:51.000Z,50.4
2023-07-24T14:08:05.000Z,50
2023-07-24T14:09:20.000Z,49.2
2023-07-24T14:10:34.000Z,49
2023-07-24T14:11:48.000Z,48.6
2023-07-24T14:13:02.000Z,49.1
2023-07-24T14:14:17.000Z,49.1
2023-07-24T14:15:31.000Z,49.3
2023-07-24T14:16:46.000Z,49.2
2023-07-24T14:18:00.000Z,49.1
2023-07-24T14:19:14.000Z,49.2
2023-07-24T14:20:28.000Z,49.3
2023-07-24T14:21:43.000Z,49.5
2023-07-24T14:22:57.000Z,49.7
2023-07-24T14:24:11.000Z,49.1
2023-07-24T14:25:26.109Z,49
2023-07-24T14:26:40.000Z,48.9
2023-07-24T14:27:54.000Z,48.9
2023-07-24T14:29:09.000Z,48.8
2023-07-24T14:30:22.368Z,48.9
2023-07-24T14:31:36.000Z,48.2
2023-07-24T14:32:50.000Z,48.1
2023-07-24T14:34:05.000Z,48.5
2023-07-24T14:35:19.000Z,47.9
2023-07-24T14:36:33.000Z,47.7
2023-07-24T14:37:48.000Z,47.7
2023-07-24T14:39:02.000Z,47.5
2023-07-24T14:40:16.000Z,47.3
2023-07-24T14:41:31.000Z,47.4
2023-07-24T14:42:45.000Z,46.8
2023-07-24T14:43:59.000Z,46.5
2023-07-24T14:45:13.000Z,46.3
2023-07-24T14:46:27.000Z,46.3
2023-07-24T14:47:41.000Z,46.7
2023-07-24T14:48:55.921Z,47
2023-07-24T14:50:10.000Z,46.7
2023-07-24T14:51:24.000Z,46.6
2023-07-24T14:52:38.000Z,45.9
2023-07-24T14:53:53.000Z,45.6
2023-07-24T14:55:07.000Z,45.5
2023-07-24T14:56:21.000Z,45.3
2023-07-24T14:57:36.000Z,45
2023-07-24T14:58:50.000Z,44.7
2023-07-24T15:00:04.000Z,45.1
2023-07-24T15:01:18.000Z,45.1
2023-07-24T15:02:32.000Z,45.1
2023-07-24T15:03:46.000Z,45.1
2023-07-24T15:05:00.000Z,45.4
2023-07-24T15:06:15.000Z,45.1
2023-07-24T15:07:29.000Z,45.4
2023-07-24T15:08:43.000Z,45.4
2023-07-24T15:09:58.000Z,45.8
2023-07-24T15:11:12.000Z,45.6
2023-07-24T15:12:26.000Z,44.9
2023-07-24T15:13:40.000Z,44.5
2023-07-24T15:14:55.000Z,44.6
2023-07-24T15:16:09.582Z,45
2023-07-24T15:17:23.000Z,44.7
2023-07-24T15:18:37.000Z,45
2023-07-24T15:19:51.000Z,44.9
2023-07-24T15:21:05.838Z,44.4
2023-07-24T15:22:20.000Z,44.1
2023-07-24T15:23:34.000Z,44
2023-07-24T15:24:48.000Z,44.6
2023-07-24T15:26:03.000Z,44.9
2023-07-24T15:27:17.000Z,45.1
2023-07-24T15:28:31.000Z,45.3
2023-07-24T15:29:45.000Z,45.5
2023-07-24T15:31:00.000Z,45.1
2023-07-24T15:32:14.000Z,44.9
2023-07-24T15:33:28.000Z,44.9
2023-07-24T15:34:42.000Z,45.3
2023-07-24T15:35:56.000Z,45.2
2023-07-24T15:37:10.000Z,45.3
2023-07-24T15:38:25.000Z,45.7
2023-07-24T15:39:39.000Z,45.8
2023-07-24T15:40:53.000Z,45.4
2023-07-24T15:42:08.000Z,45.2
2023-07-24T15:43:22.000Z,44.7
2023-07-24T15:44:36.000Z,45.3
2023-07-24T15:45:50.000Z,45
2023-07-24T15:47:05.000Z,44.2
2023-07-24T15:48:19.000Z,44.2
2023-07-24T15:49:32.000Z,44.5
2023-07-24T15:50:47.000Z,44.7
2023-07-24T15:52:01.000Z,45.1
2023-07-24T15:53:15.000Z,45.6
2023-07-24T15:54:30.000Z,45.8
2023-07-24T15:55:44.000Z,45.7
2023-07-24T15:56:58.000Z,45.9
2023-07-24T15:58:12.000Z,46
2023-07-24T15:59:27.000Z,46.1
2023-07-24T16:00:41.000Z,46.3
2023-07-24T16:01:55.861Z,46.4
2023-07-24T16:03:10.000Z,46.6
2023-07-24T16:04:24.459Z,46.5
2023-07-24T16:05:37.000Z,46.9
2023-07-24T16:06:52.000Z,46.9
2023-07-24T16:08:06.000Z,46.7
2023-07-24T16:09:20.000Z,46.8
2023-07-24T16:10:35.000Z,46.9
2023-07-24T16:11:49.000Z,46.8
2023-07-24T16:13:03.617Z,46.8
2023-07-24T16:14:17.000Z,46.9
2023-07-24T16:15:32.000Z,46.8
2023-07-24T16:16:46.000Z,46.5
2023-07-24T16:18:00.000Z,46.3
2023-07-24T16:19:15.000Z,46.2
2023-07-24T16:20:29.000Z,46.1
2023-07-24T16:21:42.000Z,46.2
2023-07-24T16:24:11.000Z,46.8
2023-07-24T16:25:25.000Z,46.9
2023-07-24T16:26:39.000Z,46.9
2023-07-24T16:27:54.000Z,47.1
2023-07-24T16:29:08.000Z,47
2023-07-24T16:30:22.000Z,46.9
2023-07-24T16:31:37.000Z,46.9
2023-07-24T16:32:51.000Z,47
2023-07-24T16:34:05.000Z,46.9
2023-07-24T16:35:20.085Z,46.9
2023-07-24T16:36:34.000Z,47.1
2023-07-24T16:37:47.000Z,47.3
2023-07-24T16:39:02.035Z,47.3
2023-07-24T16:40:16.336Z,47.4
2023-07-24T16:41:30.000Z,47.4
2023-07-24T16:42:44.000Z,47.4
2023-07-24T16:43:59.000Z,47.6
2023-07-24T16:45:13.527Z,47.9
2023-07-24T16:46:27.000Z,47.8
2023-07-24T16:47:42.000Z,48
2023-07-24T16:48:56.000Z,48.2
2023-07-24T16:50:10.000Z,48.4
2023-07-24T16:51:25.000Z,48.3
2023-07-24T16:52:39.000Z,48.3
2023-07-24T16:53:52.000Z,48.2
2023-07-24T16:55:06.000Z,48.4
2023-07-24T16:56:21.000Z,48.5
2023-07-24T16:57:35.000Z,48.6
2023-07-24T16:58:49.000Z,48.6
2023-07-24T17:00:04.000Z,48.7
2023-07-24T17:01:18.000Z,48.7
2023-07-24T17:02:32.000Z,48.8
2023-07-24T17:05:01.000Z,49
2023-07-24T17:06:15.690Z,49
2023-07-24T17:07:29.000Z,49
2023-07-24T17:08:44.000Z,48.8
2023-07-24T17:09:57.000Z,49.1
2023-07-24T17:11:11.000Z,49.1
2023-07-24T17:12:26.000Z,49.2
2023-07-24T17:13:40.000Z,49.2
2023-07-24T17:14:54.000Z,49.1
2023-07-24T17:16:09.140Z,49.1
2023-07-24T17:17:23.000Z,49.2
2023-07-24T17:18:37.000Z,49.3
2023-07-24T17:19:52.000Z,49.5
2023-07-24T17:21:06.000Z,49.4
2023-07-24T17:22:20.632Z,49.5
2023-07-24T17:23:34.000Z,49.3
2023-07-24T17:26:03.000Z,49.5
2023-07-24T17:27:16.000Z,49.6
2023-07-24T17:28:31.000Z,49.7
2023-07-24T17:29:45.000Z,50
2023-07-24T17:30:59.000Z,50.1
2023-07-24T17:32:14.000Z,49.9
2023-07-24T17:33:28.000Z,49.9
2023-07-24T17:35:56.000Z,49.9
2023-07-24T17:38:25.606Z,49.7
2023-07-24T17:39:38.000Z,49
2023-07-24T17:40:53.000Z,49.4
2023-07-24T17:42:07.000Z,51.7
2023-07-24T17:43:21.874Z,56.5
2023-07-24T17:44:36.000Z,62
2023-07-24T17:45:50.469Z,66.7
2023-07-24T17:49:33.000Z,72.2
2023-07-24T17:50:47.000Z,74.4
2023-07-24T17:52:01.000Z,76.4
2023-07-24T17:53:16.276Z,77
2023-07-24T17:54:30.565Z,78.8
2023-07-24T17:55:44.000Z,80.1
2023-07-24T17:56:59.183Z,80.9
2023-07-24T17:58:13.000Z,81.2
2023-07-24T17:59:27.000Z,81.6
2023-07-24T18:00:41.000Z,82.3
2023-07-24T18:01:55.000Z,81.8
2023-07-24T18:03:09.000Z,81.5
2023-07-24T18:04:24.000Z,81.5
2023-07-24T18:05:38.000Z,82.4
2023-07-24T18:06:52.776Z,82.2
2023-07-24T18:08:07.000Z,82.8
2023-07-24T18:09:21.000Z,83.7
2023-07-24T18:10:35.659Z,82.9
2023-07-24T18:11:49.000Z,82.2
2023-07-24T18:13:03.000Z,83.3
2023-07-24T18:14:17.000Z,83.6
2023-07-24T18:15:30.000Z,84.5
2023-07-24T18:16:45.000Z,84
2023-07-24T18:17:59.000Z,84.8
2023-07-24T18:20:28.148Z,83.8
2023-07-24T18:21:42.000Z,83.8
2023-07-24T18:22:56.760Z,83.4
2023-07-24T18:24:11.062Z,83.6
2023-07-24T18:25:25.350Z,82.7
2023-07-24T18:27:53.000Z,81.7
2023-07-24T18:29:08.252Z,81.1
2023-07-24T18:30:22.550Z,80.7
2023-07-24T18:31:36.000Z,80.4
2023-07-24T18:32:51.158Z,80.6
2023-07-24T18:35:19.000Z,82.1
2023-07-24T18:36:34.074Z,81.5
2023-07-24T18:39:02.000Z,82.2
2023-07-24T18:40:16.958Z,82.5
2023-07-24T18:42:45.577Z,80.4
2023-07-24T18:43:59.866Z,81
2023-07-24T18:45:14.165Z,81.7
2023-07-24T18:46:28.478Z,81.9
2023-07-24T18:50:11.377Z,83.1
2023-07-24T18:51:25.668Z,83.1
2023-07-24T18:52:39.974Z,83
2023-07-24T18:53:54.261Z,83.3
2023-07-24T18:55:08.705Z,82
2023-07-24T18:56:23.132Z,82.1
2023-07-24T18:57:37.000Z,82.7
2023-07-24T18:58:51.739Z,83.6
2023-07-24T19:01:20.327Z,84
2023-07-24T19:02:34.637Z,84.7
2023-07-24T19:05:03.231Z,82.3
2023-07-24T19:07:31.828Z,83.2
2023-07-24T19:08:46.133Z,84.5
2023-07-24T19:10:00.000Z,85.1
2023-07-24T19:11:14.000Z,84.9
2023-07-24T19:12:29.000Z,85.4
2023-07-24T19:13:43.456Z,85.4
2023-07-24T19:14:57.768Z,86.2
2023-07-24T19:16:12.000Z,85.5
2023-07-24T19:17:26.000Z,86
2023-07-24T19:18:40.000Z,87.2
2023-07-24T19:19:54.963Z,87.6
2023-07-24T19:21:09.268Z,87.9
2023-07-24T19:22:23.573Z,88.4
2023-07-24T19:23:37.000Z,88.8
2023-07-24T19:24:52.163Z,87.4
2023-07-24T19:26:06.464Z,87.7
2023-07-24T19:27:20.000Z,88.2
2023-07-24T19:29:49.366Z,88.6
2023-07-24T19:32:17.017Z,89.4
2023-07-24T19:33:31.317Z,89.4
2023-07-24T19:35:59.000Z,89.7
2023-07-24T19:37:14.000Z,88.9
2023-07-24T19:38:28.510Z,88.9
2023-07-24T19:39:42.000Z,89.3
2023-07-24T19:40:57.000Z,89.2
2023-07-24T19:42:11.000Z,89
2023-07-24T19:43:25.778Z,88.9
2023-07-24T19:44:40.000Z,88.9
2023-07-24T19:47:08.000Z,88.6
2023-07-24T19:48:22.000Z,88.5
2023-07-24T19:49:36.000Z,88.6
2023-07-24T19:50:50.788Z,88.5
2023-07-24T19:52:05.000Z,87.9
2023-07-24T19:54:33.000Z,87.8
2023-07-24T19:55:48.000Z,87.9
2023-07-24T19:57:02.000Z,87.6
2023-07-24T19:59:31.000Z,88.5
2023-07-24T20:00:45.000Z,88.8
2023-07-24T20:03:13.377Z,88.5
2023-07-24T20:04:27.729Z,88.6
2023-07-24T20:05:42.101Z,88.5
2023-07-24T20:08:10.792Z,88.8
2023-07-24T20:09:25.160Z,88.3
2023-07-24T20:10:39.517Z,88.3
2023-07-24T20:13:07.000Z,88.2
2023-07-24T20:14:21.000Z,88.7
2023-07-24T20:15:35.994Z,88.7
2023-07-24T20:16:50.332Z,88.1
2023-07-24T20:19:18.000Z,88.8
2023-07-24T20:20:32.000Z,88.8
2023-07-24T20:21:46.000Z,89
2023-07-24T20:23:01.000Z,89.1
2023-07-24T20:25:29.000Z,89.4
2023-07-24T20:26:44.000Z,89.4
2023-07-24T20:27:58.593Z,89.1
2023-07-24T20:29:12.000Z,89.2
2023-07-24T20:30:27.303Z,89.6
2023-07-24T20:31:41.650Z,89.5
2023-07-24T20:32:56.014Z,89.7
2023-07-24T20:36:39.000Z,89.6
2023-07-24T20:39:07.774Z,89.2
2023-07-24T20:40:21.000Z,89
2023-07-24T20:42:49.000Z,89.5
2023-07-24T20:44:04.253Z,89.3
2023-07-24T20:45:18.602Z,89.2
2023-07-24T20:46:32.000Z,89
2023-07-24T20:47:47.000Z,88.9
2023-07-24T20:49:01.000Z,89
2023-07-24T20:53:59.000Z,89
2023-07-24T20:55:13.000Z,88.9
2023-07-24T20:56:27.000Z,88.9
2023-07-24T20:57:42.000Z,88.7
2023-07-24T20:58:56.000Z,88.6
2023-07-24T21:00:10.857Z,88.5
2023-07-24T21:01:25.000Z,88.5
2023-07-24T21:02:39.000Z,88.6
2023-07-24T21:03:53.000Z,88.4
2023-07-24T21:05:08.000Z,88.6
2023-07-24T21:06:22.636Z,88.7
2023-07-24T21:08:51.000Z,89.2
2023-07-24T21:10:04.736Z,89.1
2023-07-24T21:11:19.104Z,89.3
2023-07-24T21:15:02.174Z,89.2
2023-07-24T21:16:16.512Z,89.4
2023-07-24T21:17:30.000Z,89.7
2023-07-24T21:19:59.000Z,89.7
2023-07-24T21:21:13.000Z,89.9
2023-07-24T21:23:42.000Z,90
2023-07-24T21:27:25.000Z,90.3
2023-07-24T21:28:40.000Z,90.2
2023-07-24T21:29:53.456Z,89.8
2023-07-24T21:31:07.000Z,89.6
2023-07-24T21:32:22.172Z,89.5
2023-07-24T21:33:36.000Z,89.3
2023-07-24T21:34:50.000Z,89.5
2023-07-24T21:36:05.236Z,89.5
2023-07-24T21:37:19.594Z,89.3
2023-07-24T21:38:33.000Z,89.3
2023-07-24T21:39:48.000Z,89.3
2023-07-24T21:41:02.655Z,89.1
2023-07-24T21:42:17.000Z,89
2023-07-24T21:43:31.351Z,89.2
2023-07-24T21:44:45.710Z,89.6
2023-07-24T21:46:00.066Z,89.6
2023-07-24T21:50:57.490Z,89.5
2023-07-24T21:52:11.000Z,89.7
2023-07-24T21:54:40.557Z,89.9
2023-07-24T21:55:54.896Z,89.9
2023-07-24T21:57:09.000Z,90
2023-07-24T21:59:37.956Z,89.7
2023-07-24T22:00:52.317Z,89.9
2023-07-24T22:02:06.677Z,89.9
2023-07-24T22:04:35.000Z,89.9
2023-07-24T22:05:49.000Z,90
2023-07-24T22:08:18.000Z,90
2023-07-24T22:10:46.207Z,90
2023-07-24T22:12:00.556Z,90
2023-07-24T22:13:14.917Z,89.7
2023-07-24T22:14:29.255Z,89.7
2023-07-24T22:19:26.676Z,89.8
2023-07-24T22:21:55.382Z,90
2023-07-24T22:24:24.102Z,90
2023-07-24T22:29:20.561Z,90.2
2023-07-24T22:30:34.915Z,90.2
2023-07-24T22:31:49.280Z,90.2
2023-07-24T22:34:17.982Z,90.2
2023-07-24T22:35:32.331Z,90.2
2023-07-24T22:36:46.699Z,90.1
2023-07-24T22:40:29.762Z,90.2
2023-07-24T22:41:44.119Z,90
2023-07-24T22:44:12.809Z,90.6
2023-07-24T22:46:41.521Z,90.6
2023-07-24T22:50:23.630Z,90.7
2023-07-24T22:51:37.990Z,90.9
2023-07-24T22:52:52.000Z,91.1
2023-07-24T22:54:06.000Z,91
2023-07-24T22:55:21.000Z,91
2023-07-24T22:57:49.761Z,90.9
2023-07-24T23:02:47.183Z,91.1
2023-07-24T23:04:01.536Z,91.2
2023-07-24T23:05:15.882Z,91.1
2023-07-24T23:06:30.238Z,91
2023-07-24T23:07:44.607Z,91.1
2023-07-24T23:08:58.000Z,91.3
2023-07-24T23:10:13.297Z,91.2
2023-07-24T23:13:56.000Z,91
2023-07-24T23:15:10.000Z,91
2023-07-24T23:17:39.000Z,91.1
2023-07-24T23:20:08.000Z,91.2
2023-07-24T23:21:22.617Z,91.3
2023-07-24T23:22:36.965Z,91.5
2023-07-24T23:25:05.682Z,91.3
2023-07-24T23:26:20.031Z,91.1
2023-07-24T23:28:48.746Z,91.3
2023-07-24T23:31:17.457Z,91.3
2023-07-24T23:32:31.811Z,91.1
2023-07-24T23:33:46.170Z,91.3
2023-07-24T23:35:00.511Z,91.5
2023-07-24T23:36:14.871Z,91.7
2023-07-24T23:37:29.227Z,91.7
2023-07-24T23:42:25.688Z,91
2023-07-24T23:43:40.000Z,91
2023-07-24T23:46:08.743Z,90.9
2023-07-24T23:47:23.108Z,90.9
2023-07-24T23:48:37.465Z,91
2023-07-24T23:51:06.183Z,90.9
2023-07-24T23:53:34.881Z,90.8
2023-07-24T23:54:49.242Z,90.9
2023-07-24T23:59:46.651Z,91.2
